Payton Grace Moran — WDH7992 — position and weather

sailwx.info

Track history (hours):
 
Tides and Currents Weather Stations Pressure Air Temp Water Temp Dewpoint Dewpoint Depression Visibility Wind Speed Wind Dir Waves Ship Positions

Payton Grace Moran

Owner: Moran Towing Corporation, Norfolk, VA. More information available from US FCC via Universal Licensing System and Coast Guard Vessel Documentation Center.

Last reported at 2017-Dec-11 17:01 UTC. Time now 2017-Dec-12 12:32 UTC.
Position N 25°47' W 080°11'.

Length 28 m; draft 5 m.

Type: Tug. MMSI: 367653620.

Date/timePositionNaut miles runAvg speedWind from/ knotsBaromVisibWave heightAir tempDewpointWater temp
2017-Dec-11 17:01N 25°47' W 080°11'0 0.0
2017-Dec-11 16:31N 25°47' W 080°11'0 0.0
2017-Dec-11 16:01N 25°47' W 080°11'0 0.0
2017-Dec-11 15:30N 25°47' W 080°11'0 0.0
2017-Dec-11 15:01N 25°47' W 080°11'0 0.0
2017-Dec-11 14:30N 25°47' W 080°11'0 0.0
2017-Dec-11 14:01N 25°47' W 080°11'0 0.0
2017-Dec-11 13:30N 25°47' W 080°11'0 0.0
2017-Dec-11 13:01N 25°47' W 080°11'0 0.0
2017-Dec-11 12:30N 25°47' W 080°11'0 0.0
2017-Dec-11 12:00N 25°47' W 080°11'0 0.0
2017-Dec-11 11:30N 25°47' W 080°11'0 0.0
2017-Dec-11 11:00N 25°47' W 080°11'0 0.0
2017-Dec-11 10:30N 25°47' W 080°11'0 0.0
2017-Dec-11 10:01N 25°47' W 080°11'0 0.0
2017-Dec-11 09:30N 25°47' W 080°11'0 0.0
2017-Dec-11 09:00N 25°47' W 080°11'0 0.0
2017-Dec-11 08:30N 25°47' W 080°11'0 0.0
2017-Dec-11 08:01N 25°47' W 080°11'0 0.0
2017-Dec-11 07:31N 25°47' W 080°11'0 0.0
2017-Dec-11 07:01N 25°47' W 080°11'0 0.0
2017-Dec-11 06:30N 25°47' W 080°11'0 0.0
2017-Dec-11 06:01N 25°47' W 080°11'0 0.5
2017-Dec-11 05:31N 25°47' W 080°11'1 2.9
2017-Dec-11 05:01N 25°46' W 080°09'0 0.9
2017-Dec-11 04:30N 25°46' W 080°10'1 1.6
2017-Dec-11 04:00N 25°46' W 080°09'0 0.4
2017-Dec-11 03:31N 25°46' W 080°09'1 1.2
2017-Dec-11 03:01N 25°46' W 080°10'0 0.0
2017-Dec-11 02:30N 25°46' W 080°10'0 0.0
2017-Dec-11 02:01N 25°46' W 080°10'0 0.0
2017-Dec-11 01:30N 25°46' W 080°10'0 0.0
2017-Dec-11 01:01N 25°46' W 080°10'0 0.0
2017-Dec-11 00:30N 25°46' W 080°10'0 0.0
2017-Dec-11 00:00N 25°46' W 080°10'0 0.3
2017-Dec-10 23:30N 25°46' W 080°09'1 1.4
2017-Dec-10 23:00N 25°46' W 080°10'1 1.0
2017-Dec-10 22:31N 25°46' W 080°11'0 0.0
2017-Dec-10 22:01N 25°46' W 080°11'1 1.2
2017-Dec-10 21:30N 25°47' W 080°10'1 1.6
2017-Dec-10 21:01N 25°47' W 080°11'0 0.0
2017-Dec-10 20:30N 25°47' W 080°11'0 0.0
2017-Dec-10 20:00N 25°47' W 080°11'0 0.0
2017-Dec-10 19:30N 25°47' W 080°11'0 0.0
2017-Dec-10 19:00N 25°47' W 080°11'0 0.0
2017-Dec-10 18:31N 25°47' W 080°11'0 0.0
2017-Dec-10 18:00N 25°47' W 080°11'0 0.0
2017-Dec-10 17:30N 25°47' W 080°11'0 0.0
2017-Dec-10 17:00N 25°47' W 080°11'0 0.0
2017-Dec-10 16:30N 25°47' W 080°11'0 0.0
2017-Dec-10 16:00N 25°47' W 080°11'0 0.0
2017-Dec-10 15:30N 25°47' W 080°11'0 0.0
2017-Dec-10 15:01N 25°47' W 080°11'0 0.0
2017-Dec-10 14:31N 25°47' W 080°11'0 0.0
2017-Dec-10 14:00N 25°47' W 080°11'0 0.0
2017-Dec-10 13:31N 25°47' W 080°11'0 0.0
2017-Dec-10 13:00N 25°47' W 080°11'2 4.5
2017-Dec-10 12:30N 25°46' W 080°09'1 2.4
2017-Dec-10 12:00N 25°46' W 080°10'1 1.2
2017-Dec-10 11:30N 25°46' W 080°09'1 2.8
2017-Dec-10 11:01N 25°46' W 080°11'1 1.3
2017-Dec-10 10:30N 25°46' W 080°10'3 5.8
2017-Dec-10 10:00N 25°45' W 080°07'2 3.5
2017-Dec-10 09:31N 25°46' W 080°09'1 1.7
2017-Dec-10 09:00N 25°46' W 080°10'0 0.0
2017-Dec-10 08:31N 25°46' W 080°10'0 0.0
2017-Dec-10 08:01N 25°46' W 080°10'0 0.0
2017-Dec-10 07:31N 25°46' W 080°10'0 0.0
2017-Dec-10 07:00N 25°46' W 080°10'0 0.0
2017-Dec-10 06:30N 25°46' W 080°10'0 0.0
2017-Dec-10 06:01N 25°46' W 080°10'0 0.0
2017-Dec-10 05:31N 25°46' W 080°10'0 0.0
2017-Dec-10 05:00N 25°46' W 080°10'0 0.0
2017-Dec-10 04:30N 25°46' W 080°10'0 0.0
2017-Dec-10 04:01N 25°46' W 080°10'0 0.0
2017-Dec-10 03:30N 25°46' W 080°10'0 0.0
2017-Dec-10 03:01N 25°46' W 080°10'0 0.0
2017-Dec-10 02:30N 25°46' W 080°10'0 0.0
2017-Dec-10 02:00N 25°46' W 080°10'0 0.0
2017-Dec-10 01:31N 25°46' W 080°10'0 0.0
2017-Dec-10 01:01N 25°46' W 080°10'0 0.0
2017-Dec-10 00:31N 25°46' W 080°10'0 0.2
2017-Dec-10 00:01N 25°46' W 080°09'2 3.3
2017-Dec-09 23:30N 25°46' W 080°08'1 1.2
2017-Dec-09 23:01N 25°45' W 080°07'2 3.3
2017-Dec-09 22:30N 25°46' W 080°09'0 0.0
2017-Dec-09 22:00N 25°46' W 080°09'0 0.0
2017-Dec-09 21:30N 25°46' W 080°09'0 0.0
2017-Dec-09 21:00N 25°46' W 080°09'2 3.7
2017-Dec-09 20:30N 25°45' W 080°07'1 2.6
2017-Dec-09 20:00N 25°46' W 080°05'3 5.5
2017-Dec-09 19:30N 25°46' W 080°09'1 2.0
2017-Dec-09 19:00N 25°46' W 080°10'0 0.1
2017-Dec-09 18:31N 25°46' W 080°10'0 0.0
2017-Dec-09 18:01N 25°46' W 080°10'0 0.0
2017-Dec-09 17:31N 25°46' W 080°10'0 0.0
2017-Dec-09 17:00N 25°46' W 080°10'0 0.0
2017-Dec-09 16:31N 25°46' W 080°10'0 0.0
2017-Dec-09 16:00N 25°46' W 080°10'0 0.0
2017-Dec-09 15:31N 25°46' W 080°10'0 0.0
2017-Dec-09 15:00N 25°46' W 080°10'0 0.0
2017-Dec-09 14:30N 25°46' W 080°10'0 0.0
2017-Dec-09 14:01N 25°46' W 080°10'0 0.0
2017-Dec-09 13:30N 25°46' W 080°10'0 0.0
2017-Dec-09 13:00N 25°46' W 080°10'0 0.0
2017-Dec-09 12:30N 25°46' W 080°10'0 0.0
2017-Dec-09 12:00N 25°46' W 080°10'0 0.5
2017-Dec-09 11:30N 25°46' W 080°09'0 0.2
2017-Dec-09 11:00N 25°46' W 080°09'2 4.0
2017-Dec-09 10:31N 25°45' W 080°07'0 0.5
2017-Dec-09 10:00N 25°45' W 080°07'4 7.0
2017-Dec-09 09:30N 25°47' W 080°10'0 0.7
2017-Dec-09 09:00N 25°47' W 080°11'0 0.0
2017-Dec-09 08:31N 25°47' W 080°11'0 0.0
2017-Dec-09 08:01N 25°47' W 080°11'0 0.0
2017-Dec-09 07:31N 25°47' W 080°11'0 0.0
2017-Dec-09 07:00N 25°47' W 080°11'0 0.0
2017-Dec-09 06:30N 25°47' W 080°11'0 0.0
2017-Dec-09 06:00N 25°47' W 080°11'0 0.0
2017-Dec-09 05:30N 25°47' W 080°11'0 0.0
2017-Dec-09 05:00N 25°47' W 080°11'0 0.0
2017-Dec-09 04:30N 25°47' W 080°11'0 0.0
2017-Dec-09 04:00N 25°47' W 080°11'0 0.0
2017-Dec-09 03:31N 25°47' W 080°11'0 0.0
2017-Dec-09 03:00N 25°47' W 080°11'0 0.0
2017-Dec-09 02:30N 25°47' W 080°11'0 0.0
2017-Dec-09 02:01N 25°47' W 080°11'0 0.0
2017-Dec-09 01:30N 25°47' W 080°11'0 0.0
2017-Dec-09 01:00N 25°47' W 080°11'0 0.0
2017-Dec-09 00:30N 25°47' W 080°11'0 0.0
2017-Dec-09 00:01N 25°47' W 080°11'0 0.0
2017-Dec-08 23:30N 25°47' W 080°11'2 4.8
2017-Dec-08 23:00N 25°46' W 080°08'2 3.1
2017-Dec-08 22:30N 25°46' W 080°10'1 1.2
2017-Dec-08 22:00N 25°46' W 080°11'1 2.7
2017-Dec-08 21:30N 25°46' W 080°09'0 0.0
2017-Dec-08 21:00N 25°46' W 080°09'0 0.0
2017-Dec-08 20:31N 25°46' W 080°09'0 0.0
2017-Dec-08 20:00N 25°46' W 080°09'0 0.8
2017-Dec-08 19:30N 25°46' W 080°10'0 0.4
2017-Dec-08 19:00N 25°46' W 080°10'3 6.0
2017-Dec-08 18:30N 25°45' W 080°06'1 1.9
2017-Dec-08 18:00N 25°46' W 080°06'2 4.8
2017-Dec-08 17:30N 25°46' W 080°08'3 5.2
2017-Dec-08 17:00N 25°47' W 080°11'0 0.0
2017-Dec-08 16:31N 25°47' W 080°11'0 0.0
2017-Dec-08 16:01N 25°47' W 080°11'0 0.0
2017-Dec-08 15:31N 25°47' W 080°11'0 0.0
2017-Dec-08 15:00N 25°47' W 080°11'0 0.0
2017-Dec-08 14:30N 25°47' W 080°11'0 0.0
2017-Dec-08 14:00N 25°47' W 080°11'0 0.0
2017-Dec-08 13:30N 25°47' W 080°11'0 0.0
2017-Dec-08 13:00N 25°47' W 080°11'0 0.0
2017-Dec-08 12:30N 25°47' W 080°11'0 0.0
2017-Dec-08 12:01N 25°47' W 080°11'0 0.0
2017-Dec-08 11:31N 25°47' W 080°11'0 0.0
2017-Dec-08 11:00N 25°47' W 080°11'0 0.0
2017-Dec-08 10:30N 25°47' W 080°11'0 0.0
2017-Dec-08 10:00N 25°47' W 080°11'0 0.0
2017-Dec-08 09:31N 25°47' W 080°11'0 0.0
2017-Dec-08 09:00N 25°47' W 080°11'0 0.0
2017-Dec-08 08:31N 25°47' W 080°11'0 0.0
2017-Dec-08 08:00N 25°47' W 080°11'0 0.0
2017-Dec-08 07:31N 25°47' W 080°11'0 0.0
2017-Dec-08 07:00N 25°47' W 080°11'0 0.0
2017-Dec-08 06:30N 25°47' W 080°11'0 0.0
2017-Dec-08 06:00N 25°47' W 080°11'0 0.0
2017-Dec-08 05:30N 25°47' W 080°11'0 0.0
2017-Dec-08 05:00N 25°47' W 080°11'0 0.0
2017-Dec-08 04:30N 25°47' W 080°11'0 0.0
2017-Dec-08 04:00N 25°47' W 080°11'0 0.0
2017-Dec-08 03:30N 25°47' W 080°11'0 0.0
2017-Dec-08 03:00N 25°47' W 080°11'0 0.0
2017-Dec-08 02:30N 25°47' W 080°11'0 0.0
2017-Dec-08 02:00N 25°47' W 080°11'0 0.0
2017-Dec-08 01:31N 25°47' W 080°11'0 0.0
2017-Dec-08 01:01N 25°47' W 080°11'0 0.0
2017-Dec-08 00:30N 25°47' W 080°11'0 0.0
2017-Dec-08 00:01N 25°47' W 080°11'0 0.0
2017-Dec-07 23:31N 25°47' W 080°11'0 0.0
2017-Dec-07 23:00N 25°47' W 080°11'0 0.0
2017-Dec-07 22:31N 25°47' W 080°11'0 0.0
2017-Dec-07 22:00N 25°47' W 080°11'0 0.0
2017-Dec-07 21:30N 25°47' W 080°11'0 0.0
2017-Dec-07 21:00N 25°47' W 080°11'0 0.0
2017-Dec-07 20:30N 25°47' W 080°11'0 0.0
2017-Dec-07 20:00N 25°47' W 080°11'1 2.4
2017-Dec-07 19:30N 25°46' W 080°10'1 1.2
2017-Dec-07 19:01N 25°46' W 080°09'0 0.1
2017-Dec-07 18:30N 25°46' W 080°09'0 0.0
2017-Dec-07 18:00N 25°46' W 080°09'0 0.0
2017-Dec-07 17:31N 25°46' W 080°09'0 0.0
2017-Dec-07 17:01N 25°46' W 080°09'0 0.0
2017-Dec-07 16:30N 25°46' W 080°09'0 0.0
2017-Dec-07 16:00N 25°46' W 080°09'0 0.0
2017-Dec-07 15:30N 25°46' W 080°09'0 0.0
2017-Dec-07 15:00N 25°46' W 080°09'0 0.0
2017-Dec-07 14:30N 25°46' W 080°09'0 0.0
2017-Dec-07 14:00N 25°46' W 080°09'0 0.0
2017-Dec-07 13:31N 25°46' W 080°09'0 0.0
2017-Dec-07 13:01N 25°46' W 080°09'0 0.0
2017-Dec-07 12:31N 25°46' W 080°09'0 0.0
2017-Dec-07 12:01N 25°46' W 080°09'0 0.0
2017-Dec-07 11:30N 25°46' W 080°09'0 0.0
2017-Dec-07 11:01N 25°46' W 080°09'0 0.0
2017-Dec-07 10:30N 25°46' W 080°09'0 0.0
2017-Dec-07 10:00N 25°46' W 080°09'0 0.2
2017-Dec-07 09:31N 25°46' W 080°09'1 1.7
2017-Dec-07 09:00N 25°46' W 080°10'2 3.8
2017-Dec-07 08:31N 25°46' W 080°08'1 1.6
2017-Dec-07 08:00N 25°46' W 080°07'2 3.6
2017-Dec-07 07:30N 25°46' W 080°09'0 0.0
2017-Dec-07 07:00N 25°46' W 080°09'0 0.0
2017-Dec-07 06:31N 25°46' W 080°09'0 0.0
2017-Dec-07 06:00N 25°46' W 080°09'0 0.1
2017-Dec-07 05:31N 25°46' W 080°09'0 0.2
2017-Dec-07 05:00N 25°46' W 080°09'0 0.2
2017-Dec-07 04:31N 25°46' W 080°09'2 3.8
2017-Dec-07 04:01N 25°47' W 080°11'0 0.0
2017-Dec-07 03:30N 25°47' W 080°11'0 0.0
2017-Dec-07 03:01N 25°47' W 080°11'0 0.0
2017-Dec-07 02:30N 25°47' W 080°11'0 0.0
2017-Dec-07 02:01N 25°47' W 080°11'0 0.0
2017-Dec-07 01:31N 25°47' W 080°11'0 0.0
2017-Dec-07 01:00N 25°47' W 080°11'0 0.0
2017-Dec-07 00:30N 25°47' W 080°11'0 0.0
2017-Dec-07 00:00N 25°47' W 080°11'0 0.0
2017-Dec-06 23:30N 25°47' W 080°11'0 0.0
2017-Dec-06 23:00N 25°47' W 080°11'0 0.0
2017-Dec-06 22:30N 25°47' W 080°11'0 0.0
2017-Dec-06 22:00N 25°47' W 080°11'0 0.0
2017-Dec-06 21:30N 25°47' W 080°11'0 0.0
2017-Dec-06 21:00N 25°47' W 080°11'  
2017-Dec-04 10:31N 25°47' W 080°11'0 0.0
2017-Dec-04 10:00N 25°47' W 080°11'0 0.0
2017-Dec-04 09:31N 25°47' W 080°11'0 0.0
2017-Dec-04 09:00N 25°47' W 080°11'0 0.0
2017-Dec-04 08:31N 25°47' W 080°11'0 0.0
2017-Dec-04 08:01N 25°47' W 080°11'0 0.0
2017-Dec-04 07:30N 25°47' W 080°11'0 0.0
2017-Dec-04 07:00N 25°47' W 080°11'0 0.0
2017-Dec-04 06:31N 25°47' W 080°11'0 0.0
2017-Dec-04 06:01N 25°47' W 080°11'0 0.0
2017-Dec-04 05:30N 25°47' W 080°11'0 0.0
2017-Dec-04 05:00N 25°47' W 080°11'0 0.0
2017-Dec-04 04:31N 25°47' W 080°11'0 0.0
2017-Dec-04 04:00N 25°47' W 080°11'0 0.0
2017-Dec-04 03:30N 25°47' W 080°11'0 0.0
2017-Dec-04 03:00N 25°47' W 080°11'0 0.0
2017-Dec-04 02:30N 25°47' W 080°11'0 0.0
2017-Dec-04 02:01N 25°47' W 080°11'0 0.0
2017-Dec-04 01:30N 25°47' W 080°11'0 0.0
2017-Dec-04 01:00N 25°47' W 080°11'0 0.0
2017-Dec-04 00:30N 25°47' W 080°11'0 0.0
2017-Dec-04 00:01N 25°47' W 080°11'0 0.0
2017-Dec-03 23:30N 25°47' W 080°11'0 0.0
2017-Dec-03 23:00N 25°47' W 080°11'0 0.0
2017-Dec-03 22:31N 25°47' W 080°11'0 0.0
2017-Dec-03 22:01N 25°47' W 080°11'0 0.0
2017-Dec-03 21:30N 25°47' W 080°11'0 0.0
2017-Dec-03 21:00N 25°47' W 080°11'0 0.0
2017-Dec-03 20:30N 25°47' W 080°11'0 0.0
2017-Dec-03 20:01N 25°47' W 080°11'0 0.0
2017-Dec-03 19:30N 25°47' W 080°11'0 0.0
2017-Dec-03 19:00N 25°47' W 080°11'0 0.0
2017-Dec-03 18:30N 25°47' W 080°11'0 0.0
2017-Dec-03 18:00N 25°47' W 080°11'0 0.0
2017-Dec-03 17:30N 25°47' W 080°11'0 0.0
2017-Dec-03 17:00N 25°47' W 080°11'0 0.0
2017-Dec-03 16:30N 25°47' W 080°11'0 0.0
2017-Dec-03 16:00N 25°47' W 080°11'0 0.0
2017-Dec-03 15:31N 25°47' W 080°11'0 0.0
2017-Dec-03 15:00N 25°47' W 080°11'0 0.0
2017-Dec-03 14:31N 25°47' W 080°11'0 0.0
2017-Dec-03 14:01N 25°47' W 080°11'0 0.0
2017-Dec-03 13:30N 25°47' W 080°11'0 0.0
2017-Dec-03 13:00N 25°47' W 080°11'0 0.0
2017-Dec-03 12:31N 25°47' W 080°11'0 0.0
2017-Dec-03 12:00N 25°47' W 080°11'0 0.0
2017-Dec-03 11:31N 25°47' W 080°11'0 0.0
2017-Dec-03 11:01N 25°47' W 080°11'0 0.0
2017-Dec-03 10:30N 25°47' W 080°11'0 0.0
2017-Dec-03 10:01N 25°47' W 080°11'0 0.0
2017-Dec-03 09:31N 25°47' W 080°11'0 0.0
2017-Dec-03 09:01N 25°47' W 080°11'0 0.0
2017-Dec-03 08:30N 25°47' W 080°11'0 0.0
2017-Dec-03 08:00N 25°47' W 080°11'0 0.0
2017-Dec-03 07:31N 25°47' W 080°11'0 0.0
2017-Dec-03 07:01N 25°47' W 080°11'0 0.0
2017-Dec-03 06:30N 25°47' W 080°11'0 0.0
2017-Dec-03 06:01N 25°47' W 080°11'0 0.0
2017-Dec-03 05:31N 25°47' W 080°11'0 0.0
2017-Dec-03 05:00N 25°47' W 080°11'0 0.0
2017-Dec-03 04:30N 25°47' W 080°11'0 0.0
2017-Dec-03 04:00N 25°47' W 080°11'0 0.0
2017-Dec-03 03:30N 25°47' W 080°11'0 0.0
2017-Dec-03 03:00N 25°47' W 080°11'0 0.0
2017-Dec-03 02:30N 25°47' W 080°11'0 0.0
2017-Dec-03 02:01N 25°47' W 080°11'0 0.0
2017-Dec-03 01:30N 25°47' W 080°11'0 0.0
2017-Dec-03 01:00N 25°47' W 080°11'0 0.0
2017-Dec-03 00:30N 25°47' W 080°11'0 0.0
2017-Dec-03 00:00N 25°47' W 080°11'0 0.0
2017-Dec-02 23:30N 25°47' W 080°11'0 0.0
2017-Dec-02 23:00N 25°47' W 080°11'0 0.0
2017-Dec-02 22:31N 25°47' W 080°11'0 0.0
2017-Dec-02 22:01N 25°47' W 080°11'0 0.0
2017-Dec-02 21:30N 25°47' W 080°11'0 0.0
2017-Dec-02 21:01N 25°47' W 080°11'0 0.0
2017-Dec-02 20:30N 25°47' W 080°11'0 0.0
2017-Dec-02 20:00N 25°47' W 080°11'0 0.0
2017-Dec-02 19:30N 25°47' W 080°11'0 0.0
2017-Dec-02 19:01N 25°47' W 080°11'0 0.0
2017-Dec-02 18:31N 25°47' W 080°11'1 1.4
2017-Dec-02 18:00N 25°47' W 080°10'1 2.2
2017-Dec-02 17:30N 25°46' W 080°09'0 0.4
2017-Dec-02 17:01N 25°46' W 080°09'0 0.8
2017-Dec-02 16:30N 25°46' W 080°10'1 1.0
2017-Dec-02 16:00N 25°46' W 080°09'2 4.7
2017-Dec-02 15:31N 25°45' W 080°07'2 3.9
2017-Dec-02 15:00N 25°46' W 080°09'2 4.1
2017-Dec-02 14:30N 25°47' W 080°11'0 0.1
2017-Dec-02 14:01N 25°47' W 080°11'0 0.0
2017-Dec-02 13:30N 25°47' W 080°11'0 0.0
2017-Dec-02 13:00N 25°47' W 080°11'0 0.0
2017-Dec-02 12:30N 25°47' W 080°11'0 0.0
2017-Dec-02 12:00N 25°47' W 080°11'0 0.0
2017-Dec-02 11:30N 25°47' W 080°11'0 0.0
2017-Dec-02 11:01N 25°47' W 080°11'0 0.0
2017-Dec-02 10:30N 25°47' W 080°11'0 0.0
2017-Dec-02 10:01N 25°47' W 080°11'0 0.0
2017-Dec-02 09:30N 25°47' W 080°11'0 0.0
2017-Dec-02 09:00N 25°47' W 080°11'0 0.0
2017-Dec-02 08:30N 25°47' W 080°11'0 0.0
2017-Dec-02 08:00N 25°47' W 080°11'0 0.0
2017-Dec-02 07:30N 25°47' W 080°11'0 0.0
2017-Dec-02 07:00N 25°47' W 080°11'0 0.0
2017-Dec-02 06:30N 25°47' W 080°11'0 0.0
2017-Dec-02 06:00N 25°47' W 080°11'0 0.0
2017-Dec-02 05:30N 25°47' W 080°11'0 0.0
2017-Dec-02 05:00N 25°47' W 080°11'0 0.0
2017-Dec-02 04:31N 25°47' W 080°11'0 0.0
2017-Dec-02 04:00N 25°47' W 080°11'0 0.0
2017-Dec-02 03:30N 25°47' W 080°11'0 0.0
2017-Dec-02 03:00N 25°47' W 080°11'0 0.0
2017-Dec-02 02:30N 25°47' W 080°11'0 0.0
2017-Dec-02 02:00N 25°47' W 080°11'1 2.0
2017-Dec-02 01:30N 25°47' W 080°10'1 1.7
2017-Dec-02 01:00N 25°46' W 080°09'0 0.9
2017-Dec-02 00:30N 25°46' W 080°09'2 3.5
2017-Dec-02 00:01N 25°45' W 080°07'1 2.2
2017-Dec-01 23:31N 25°46' W 080°08'3 5.6
2017-Dec-01 23:01N 25°47' W 080°11'0 0.1
2017-Dec-01 22:31N 25°47' W 080°11'0 0.0
2017-Dec-01 22:00N 25°47' W 080°11'0 0.0
2017-Dec-01 21:31N 25°47' W 080°11'0 0.0
2017-Dec-01 21:00N 25°47' W 080°11'0 0.0
2017-Dec-01 20:30N 25°47' W 080°11'0 0.0
2017-Dec-01 20:01N 25°47' W 080°11'0 0.0
2017-Dec-01 19:31N 25°47' W 080°11'0 0.0
2017-Dec-01 19:01N 25°47' W 080°11'0 0.0
2017-Dec-01 18:30N 25°47' W 080°11'0 0.0
2017-Dec-01 18:00N 25°47' W 080°11'0 0.0
2017-Dec-01 17:30N 25°47' W 080°11'0 0.0
2017-Dec-01 17:01N 25°47' W 080°11'  
Track history (hours):
 
Tides and Currents Weather Stations Pressure Air Temp Water Temp Dewpoint Dewpoint Depression Visibility Wind Speed Wind Dir Waves Ship Positions

Payton Grace Moran

Owner: Moran Towing Corporation, Norfolk, VA. More information available from US FCC via Universal Licensing System and Coast Guard Vessel Documentation Center.

Last reported at 2017-Dec-11 17:01 UTC. Time now 2017-Dec-12 12:32 UTC.
Position N 25°47' W 080°11'.

Length 28 m; draft 5 m.

Type: Tug. MMSI: 367653620.

Date/timePositionNaut miles runAvg speedWind from/ knotsBaromVisibWave heightAir tempDewpointWater temp
2017-Dec-11 17:01N 25°47' W 080°11'0 0.0
2017-Dec-11 16:31N 25°47' W 080°11'0 0.0
2017-Dec-11 16:01N 25°47' W 080°11'0 0.0
2017-Dec-11 15:30N 25°47' W 080°11'0 0.0
2017-Dec-11 15:01N 25°47' W 080°11'0 0.0
2017-Dec-11 14:30N 25°47' W 080°11'0 0.0
2017-Dec-11 14:01N 25°47' W 080°11'0 0.0
2017-Dec-11 13:30N 25°47' W 080°11'0 0.0
2017-Dec-11 13:01N 25°47' W 080°11'0 0.0
2017-Dec-11 12:30N 25°47' W 080°11'0 0.0
2017-Dec-11 12:00N 25°47' W 080°11'0 0.0
2017-Dec-11 11:30N 25°47' W 080°11'0 0.0
2017-Dec-11 11:00N 25°47' W 080°11'0 0.0
2017-Dec-11 10:30N 25°47' W 080°11'0 0.0
2017-Dec-11 10:01N 25°47' W 080°11'0 0.0
2017-Dec-11 09:30N 25°47' W 080°11'0 0.0
2017-Dec-11 09:00N 25°47' W 080°11'0 0.0
2017-Dec-11 08:30N 25°47' W 080°11'0 0.0
2017-Dec-11 08:01N 25°47' W 080°11'0 0.0
2017-Dec-11 07:31N 25°47' W 080°11'0 0.0
2017-Dec-11 07:01N 25°47' W 080°11'0 0.0
2017-Dec-11 06:30N 25°47' W 080°11'0 0.0
2017-Dec-11 06:01N 25°47' W 080°11'0 0.5
2017-Dec-11 05:31N 25°47' W 080°11'1 2.9
2017-Dec-11 05:01N 25°46' W 080°09'0 0.9
2017-Dec-11 04:30N 25°46' W 080°10'1 1.6
2017-Dec-11 04:00N 25°46' W 080°09'0 0.4
2017-Dec-11 03:31N 25°46' W 080°09'1 1.2
2017-Dec-11 03:01N 25°46' W 080°10'0 0.0
2017-Dec-11 02:30N 25°46' W 080°10'0 0.0
2017-Dec-11 02:01N 25°46' W 080°10'0 0.0
2017-Dec-11 01:30N 25°46' W 080°10'0 0.0
2017-Dec-11 01:01N 25°46' W 080°10'0 0.0
2017-Dec-11 00:30N 25°46' W 080°10'0 0.0
2017-Dec-11 00:00N 25°46' W 080°10'0 0.3
2017-Dec-10 23:30N 25°46' W 080°09'1 1.4
2017-Dec-10 23:00N 25°46' W 080°10'1 1.0
2017-Dec-10 22:31N 25°46' W 080°11'0 0.0
2017-Dec-10 22:01N 25°46' W 080°11'1 1.2
2017-Dec-10 21:30N 25°47' W 080°10'1 1.6
2017-Dec-10 21:01N 25°47' W 080°11'0 0.0
2017-Dec-10 20:30N 25°47' W 080°11'0 0.0
2017-Dec-10 20:00N 25°47' W 080°11'0 0.0
2017-Dec-10 19:30N 25°47' W 080°11'0 0.0
2017-Dec-10 19:00N 25°47' W 080°11'0 0.0
2017-Dec-10 18:31N 25°47' W 080°11'0 0.0
2017-Dec-10 18:00N 25°47' W 080°11'0 0.0
2017-Dec-10 17:30N 25°47' W 080°11'0 0.0
2017-Dec-10 17:00N 25°47' W 080°11'0 0.0
2017-Dec-10 16:30N 25°47' W 080°11'0 0.0
2017-Dec-10 16:00N 25°47' W 080°11'0 0.0
2017-Dec-10 15:30N 25°47' W 080°11'0 0.0
2017-Dec-10 15:01N 25°47' W 080°11'0 0.0
2017-Dec-10 14:31N 25°47' W 080°11'0 0.0
2017-Dec-10 14:00N 25°47' W 080°11'0 0.0
2017-Dec-10 13:31N 25°47' W 080°11'0 0.0
2017-Dec-10 13:00N 25°47' W 080°11'2 4.5
2017-Dec-10 12:30N 25°46' W 080°09'1 2.4
2017-Dec-10 12:00N 25°46' W 080°10'1 1.2
2017-Dec-10 11:30N 25°46' W 080°09'1 2.8
2017-Dec-10 11:01N 25°46' W 080°11'1 1.3
2017-Dec-10 10:30N 25°46' W 080°10'3 5.8
2017-Dec-10 10:00N 25°45' W 080°07'2 3.5
2017-Dec-10 09:31N 25°46' W 080°09'1 1.7
2017-Dec-10 09:00N 25°46' W 080°10'0 0.0
2017-Dec-10 08:31N 25°46' W 080°10'0 0.0
2017-Dec-10 08:01N 25°46' W 080°10'0 0.0
2017-Dec-10 07:31N 25°46' W 080°10'0 0.0
2017-Dec-10 07:00N 25°46' W 080°10'0 0.0
2017-Dec-10 06:30N 25°46' W 080°10'0 0.0
2017-Dec-10 06:01N 25°46' W 080°10'0 0.0
2017-Dec-10 05:31N 25°46' W 080°10'0 0.0
2017-Dec-10 05:00N 25°46' W 080°10'0 0.0
2017-Dec-10 04:30N 25°46' W 080°10'0 0.0
2017-Dec-10 04:01N 25°46' W 080°10'0 0.0
2017-Dec-10 03:30N 25°46' W 080°10'0 0.0
2017-Dec-10 03:01N 25°46' W 080°10'0 0.0
2017-Dec-10 02:30N 25°46' W 080°10'0 0.0
2017-Dec-10 02:00N 25°46' W 080°10'0 0.0
2017-Dec-10 01:31N 25°46' W 080°10'0 0.0
2017-Dec-10 01:01N 25°46' W 080°10'0 0.0
2017-Dec-10 00:31N 25°46' W 080°10'0 0.2
2017-Dec-10 00:01N 25°46' W 080°09'2 3.3
2017-Dec-09 23:30N 25°46' W 080°08'1 1.2
2017-Dec-09 23:01N 25°45' W 080°07'2 3.3
2017-Dec-09 22:30N 25°46' W 080°09'0 0.0
2017-Dec-09 22:00N 25°46' W 080°09'0 0.0
2017-Dec-09 21:30N 25°46' W 080°09'0 0.0
2017-Dec-09 21:00N 25°46' W 080°09'2 3.7
2017-Dec-09 20:30N 25°45' W 080°07'1 2.6
2017-Dec-09 20:00N 25°46' W 080°05'3 5.5
2017-Dec-09 19:30N 25°46' W 080°09'1 2.0
2017-Dec-09 19:00N 25°46' W 080°10'0 0.1
2017-Dec-09 18:31N 25°46' W 080°10'0 0.0
2017-Dec-09 18:01N 25°46' W 080°10'0 0.0
2017-Dec-09 17:31N 25°46' W 080°10'0 0.0
2017-Dec-09 17:00N 25°46' W 080°10'0 0.0
2017-Dec-09 16:31N 25°46' W 080°10'0 0.0
2017-Dec-09 16:00N 25°46' W 080°10'0 0.0
2017-Dec-09 15:31N 25°46' W 080°10'0 0.0
2017-Dec-09 15:00N 25°46' W 080°10'0 0.0
2017-Dec-09 14:30N 25°46' W 080°10'0 0.0
2017-Dec-09 14:01N 25°46' W 080°10'0 0.0
2017-Dec-09 13:30N 25°46' W 080°10'0 0.0
2017-Dec-09 13:00N 25°46' W 080°10'0 0.0
2017-Dec-09 12:30N 25°46' W 080°10'0 0.0
2017-Dec-09 12:00N 25°46' W 080°10'0 0.5
2017-Dec-09 11:30N 25°46' W 080°09'0 0.2
2017-Dec-09 11:00N 25°46' W 080°09'2 4.0
2017-Dec-09 10:31N 25°45' W 080°07'0 0.5
2017-Dec-09 10:00N 25°45' W 080°07'4 7.0
2017-Dec-09 09:30N 25°47' W 080°10'0 0.7
2017-Dec-09 09:00N 25°47' W 080°11'0 0.0
2017-Dec-09 08:31N 25°47' W 080°11'0 0.0
2017-Dec-09 08:01N 25°47' W 080°11'0 0.0
2017-Dec-09 07:31N 25°47' W 080°11'0 0.0
2017-Dec-09 07:00N 25°47' W 080°11'0 0.0
2017-Dec-09 06:30N 25°47' W 080°11'0 0.0
2017-Dec-09 06:00N 25°47' W 080°11'0 0.0
2017-Dec-09 05:30N 25°47' W 080°11'0 0.0
2017-Dec-09 05:00N 25°47' W 080°11'0 0.0
2017-Dec-09 04:30N 25°47' W 080°11'0 0.0
2017-Dec-09 04:00N 25°47' W 080°11'0 0.0
2017-Dec-09 03:31N 25°47' W 080°11'0 0.0
2017-Dec-09 03:00N 25°47' W 080°11'0 0.0
2017-Dec-09 02:30N 25°47' W 080°11'0 0.0
2017-Dec-09 02:01N 25°47' W 080°11'0 0.0
2017-Dec-09 01:30N 25°47' W 080°11'0 0.0
2017-Dec-09 01:00N 25°47' W 080°11'0 0.0
2017-Dec-09 00:30N 25°47' W 080°11'0 0.0
2017-Dec-09 00:01N 25°47' W 080°11'0 0.0
2017-Dec-08 23:30N 25°47' W 080°11'2 4.8
2017-Dec-08 23:00N 25°46' W 080°08'2 3.1
2017-Dec-08 22:30N 25°46' W 080°10'1 1.2
2017-Dec-08 22:00N 25°46' W 080°11'1 2.7
2017-Dec-08 21:30N 25°46' W 080°09'0 0.0
2017-Dec-08 21:00N 25°46' W 080°09'0 0.0
2017-Dec-08 20:31N 25°46' W 080°09'0 0.0
2017-Dec-08 20:00N 25°46' W 080°09'0 0.8
2017-Dec-08 19:30N 25°46' W 080°10'0 0.4
2017-Dec-08 19:00N 25°46' W 080°10'3 6.0
2017-Dec-08 18:30N 25°45' W 080°06'1 1.9
2017-Dec-08 18:00N 25°46' W 080°06'2 4.8
2017-Dec-08 17:30N 25°46' W 080°08'3 5.2
2017-Dec-08 17:00N 25°47' W 080°11'0 0.0
2017-Dec-08 16:31N 25°47' W 080°11'0 0.0
2017-Dec-08 16:01N 25°47' W 080°11'0 0.0
2017-Dec-08 15:31N 25°47' W 080°11'0 0.0
2017-Dec-08 15:00N 25°47' W 080°11'0 0.0
2017-Dec-08 14:30N 25°47' W 080°11'0 0.0
2017-Dec-08 14:00N 25°47' W 080°11'0 0.0
2017-Dec-08 13:30N 25°47' W 080°11'0 0.0
2017-Dec-08 13:00N 25°47' W 080°11'0 0.0
2017-Dec-08 12:30N 25°47' W 080°11'0 0.0
2017-Dec-08 12:01N 25°47' W 080°11'0 0.0
2017-Dec-08 11:31N 25°47' W 080°11'0 0.0
2017-Dec-08 11:00N 25°47' W 080°11'0 0.0
2017-Dec-08 10:30N 25°47' W 080°11'0 0.0
2017-Dec-08 10:00N 25°47' W 080°11'0 0.0
2017-Dec-08 09:31N 25°47' W 080°11'0 0.0
2017-Dec-08 09:00N 25°47' W 080°11'0 0.0
2017-Dec-08 08:31N 25°47' W 080°11'0 0.0
2017-Dec-08 08:00N 25°47' W 080°11'0 0.0
2017-Dec-08 07:31N 25°47' W 080°11'0 0.0
2017-Dec-08 07:00N 25°47' W 080°11'0 0.0
2017-Dec-08 06:30N 25°47' W 080°11'0 0.0
2017-Dec-08 06:00N 25°47' W 080°11'0 0.0
2017-Dec-08 05:30N 25°47' W 080°11'0 0.0
2017-Dec-08 05:00N 25°47' W 080°11'0 0.0
2017-Dec-08 04:30N 25°47' W 080°11'0 0.0
2017-Dec-08 04:00N 25°47' W 080°11'0 0.0
2017-Dec-08 03:30N 25°47' W 080°11'0 0.0
2017-Dec-08 03:00N 25°47' W 080°11'0 0.0
2017-Dec-08 02:30N 25°47' W 080°11'0 0.0
2017-Dec-08 02:00N 25°47' W 080°11'0 0.0
2017-Dec-08 01:31N 25°47' W 080°11'0 0.0
2017-Dec-08 01:01N 25°47' W 080°11'0 0.0
2017-Dec-08 00:30N 25°47' W 080°11'0 0.0
2017-Dec-08 00:01N 25°47' W 080°11'0 0.0
2017-Dec-07 23:31N 25°47' W 080°11'0 0.0
2017-Dec-07 23:00N 25°47' W 080°11'0 0.0
2017-Dec-07 22:31N 25°47' W 080°11'0 0.0
2017-Dec-07 22:00N 25°47' W 080°11'0 0.0
2017-Dec-07 21:30N 25°47' W 080°11'0 0.0
2017-Dec-07 21:00N 25°47' W 080°11'0 0.0
2017-Dec-07 20:30N 25°47' W 080°11'0 0.0
2017-Dec-07 20:00N 25°47' W 080°11'1 2.4
2017-Dec-07 19:30N 25°46' W 080°10'1 1.2
2017-Dec-07 19:01N 25°46' W 080°09'0 0.1
2017-Dec-07 18:30N 25°46' W 080°09'0 0.0
2017-Dec-07 18:00N 25°46' W 080°09'0 0.0
2017-Dec-07 17:31N 25°46' W 080°09'0 0.0
2017-Dec-07 17:01N 25°46' W 080°09'0 0.0
2017-Dec-07 16:30N 25°46' W 080°09'0 0.0
2017-Dec-07 16:00N 25°46' W 080°09'0 0.0
2017-Dec-07 15:30N 25°46' W 080°09'0 0.0
2017-Dec-07 15:00N 25°46' W 080°09'0 0.0
2017-Dec-07 14:30N 25°46' W 080°09'0 0.0
2017-Dec-07 14:00N 25°46' W 080°09'0 0.0
2017-Dec-07 13:31N 25°46' W 080°09'0 0.0
2017-Dec-07 13:01N 25°46' W 080°09'0 0.0
2017-Dec-07 12:31N 25°46' W 080°09'0 0.0
2017-Dec-07 12:01N 25°46' W 080°09'0 0.0
2017-Dec-07 11:30N 25°46' W 080°09'0 0.0
2017-Dec-07 11:01N 25°46' W 080°09'0 0.0
2017-Dec-07 10:30N 25°46' W 080°09'0 0.0
2017-Dec-07 10:00N 25°46' W 080°09'0 0.2
2017-Dec-07 09:31N 25°46' W 080°09'1 1.7
2017-Dec-07 09:00N 25°46' W 080°10'2 3.8
2017-Dec-07 08:31N 25°46' W 080°08'1 1.6
2017-Dec-07 08:00N 25°46' W 080°07'2 3.6
2017-Dec-07 07:30N 25°46' W 080°09'0 0.0
2017-Dec-07 07:00N 25°46' W 080°09'0 0.0
2017-Dec-07 06:31N 25°46' W 080°09'0 0.0
2017-Dec-07 06:00N 25°46' W 080°09'0 0.1
2017-Dec-07 05:31N 25°46' W 080°09'0 0.2
2017-Dec-07 05:00N 25°46' W 080°09'0 0.2
2017-Dec-07 04:31N 25°46' W 080°09'2 3.8
2017-Dec-07 04:01N 25°47' W 080°11'0 0.0
2017-Dec-07 03:30N 25°47' W 080°11'0 0.0
2017-Dec-07 03:01N 25°47' W 080°11'0 0.0
2017-Dec-07 02:30N 25°47' W 080°11'0 0.0
2017-Dec-07 02:01N 25°47' W 080°11'0 0.0
2017-Dec-07 01:31N 25°47' W 080°11'0 0.0
2017-Dec-07 01:00N 25°47' W 080°11'0 0.0
2017-Dec-07 00:30N 25°47' W 080°11'0 0.0
2017-Dec-07 00:00N 25°47' W 080°11'0 0.0
2017-Dec-06 23:30N 25°47' W 080°11'0 0.0
2017-Dec-06 23:00N 25°47' W 080°11'0 0.0
2017-Dec-06 22:30N 25°47' W 080°11'0 0.0
2017-Dec-06 22:00N 25°47' W 080°11'0 0.0
2017-Dec-06 21:30N 25°47' W 080°11'0 0.0
2017-Dec-06 21:00N 25°47' W 080°11'  
2017-Dec-04 10:31N 25°47' W 080°11'0 0.0
2017-Dec-04 10:00N 25°47' W 080°11'0 0.0
2017-Dec-04 09:31N 25°47' W 080°11'0 0.0
2017-Dec-04 09:00N 25°47' W 080°11'0 0.0
2017-Dec-04 08:31N 25°47' W 080°11'0 0.0
2017-Dec-04 08:01N 25°47' W 080°11'0 0.0
2017-Dec-04 07:30N 25°47' W 080°11'0 0.0
2017-Dec-04 07:00N 25°47' W 080°11'0 0.0
2017-Dec-04 06:31N 25°47' W 080°11'0 0.0
2017-Dec-04 06:01N 25°47' W 080°11'0 0.0
2017-Dec-04 05:30N 25°47' W 080°11'0 0.0
2017-Dec-04 05:00N 25°47' W 080°11'0 0.0
2017-Dec-04 04:31N 25°47' W 080°11'0 0.0
2017-Dec-04 04:00N 25°47' W 080°11'0 0.0
2017-Dec-04 03:30N 25°47' W 080°11'0 0.0
2017-Dec-04 03:00N 25°47' W 080°11'0 0.0
2017-Dec-04 02:30N 25°47' W 080°11'0 0.0
2017-Dec-04 02:01N 25°47' W 080°11'0 0.0
2017-Dec-04 01:30N 25°47' W 080°11'0 0.0
2017-Dec-04 01:00N 25°47' W 080°11'0 0.0
2017-Dec-04 00:30N 25°47' W 080°11'0 0.0
2017-Dec-04 00:01N 25°47' W 080°11'0 0.0
2017-Dec-03 23:30N 25°47' W 080°11'0 0.0
2017-Dec-03 23:00N 25°47' W 080°11'0 0.0
2017-Dec-03 22:31N 25°47' W 080°11'0 0.0
2017-Dec-03 22:01N 25°47' W 080°11'0 0.0
2017-Dec-03 21:30N 25°47' W 080°11'0 0.0
2017-Dec-03 21:00N 25°47' W 080°11'0 0.0
2017-Dec-03 20:30N 25°47' W 080°11'0 0.0
2017-Dec-03 20:01N 25°47' W 080°11'0 0.0
2017-Dec-03 19:30N 25°47' W 080°11'0 0.0
2017-Dec-03 19:00N 25°47' W 080°11'0 0.0
2017-Dec-03 18:30N 25°47' W 080°11'0 0.0
2017-Dec-03 18:00N 25°47' W 080°11'0 0.0
2017-Dec-03 17:30N 25°47' W 080°11'0 0.0
2017-Dec-03 17:00N 25°47' W 080°11'0 0.0
2017-Dec-03 16:30N 25°47' W 080°11'0 0.0
2017-Dec-03 16:00N 25°47' W 080°11'0 0.0
2017-Dec-03 15:31N 25°47' W 080°11'0 0.0
2017-Dec-03 15:00N 25°47' W 080°11'0 0.0
2017-Dec-03 14:31N 25°47' W 080°11'0 0.0
2017-Dec-03 14:01N 25°47' W 080°11'0 0.0
2017-Dec-03 13:30N 25°47' W 080°11'0 0.0
2017-Dec-03 13:00N 25°47' W 080°11'0 0.0
2017-Dec-03 12:31N 25°47' W 080°11'0 0.0
2017-Dec-03 12:00N 25°47' W 080°11'0 0.0
2017-Dec-03 11:31N 25°47' W 080°11'0 0.0
2017-Dec-03 11:01N 25°47' W 080°11'0 0.0
2017-Dec-03 10:30N 25°47' W 080°11'0 0.0
2017-Dec-03 10:01N 25°47' W 080°11'0 0.0
2017-Dec-03 09:31N 25°47' W 080°11'0 0.0
2017-Dec-03 09:01N 25°47' W 080°11'0 0.0
2017-Dec-03 08:30N 25°47' W 080°11'0 0.0
2017-Dec-03 08:00N 25°47' W 080°11'0 0.0
2017-Dec-03 07:31N 25°47' W 080°11'0 0.0
2017-Dec-03 07:01N 25°47' W 080°11'0 0.0
2017-Dec-03 06:30N 25°47' W 080°11'0 0.0
2017-Dec-03 06:01N 25°47' W 080°11'0 0.0
2017-Dec-03 05:31N 25°47' W 080°11'0 0.0
2017-Dec-03 05:00N 25°47' W 080°11'0 0.0
2017-Dec-03 04:30N 25°47' W 080°11'0 0.0
2017-Dec-03 04:00N 25°47' W 080°11'0 0.0
2017-Dec-03 03:30N 25°47' W 080°11'0 0.0
2017-Dec-03 03:00N 25°47' W 080°11'0 0.0
2017-Dec-03 02:30N 25°47' W 080°11'0 0.0
2017-Dec-03 02:01N 25°47' W 080°11'0 0.0
2017-Dec-03 01:30N 25°47' W 080°11'0 0.0
2017-Dec-03 01:00N 25°47' W 080°11'0 0.0
2017-Dec-03 00:30N 25°47' W 080°11'0 0.0
2017-Dec-03 00:00N 25°47' W 080°11'0 0.0
2017-Dec-02 23:30N 25°47' W 080°11'0 0.0
2017-Dec-02 23:00N 25°47' W 080°11'0 0.0
2017-Dec-02 22:31N 25°47' W 080°11'0 0.0
2017-Dec-02 22:01N 25°47' W 080°11'0 0.0
2017-Dec-02 21:30N 25°47' W 080°11'0 0.0
2017-Dec-02 21:01N 25°47' W 080°11'0 0.0
2017-Dec-02 20:30N 25°47' W 080°11'0 0.0
2017-Dec-02 20:00N 25°47' W 080°11'0 0.0
2017-Dec-02 19:30N 25°47' W 080°11'0 0.0
2017-Dec-02 19:01N 25°47' W 080°11'0 0.0
2017-Dec-02 18:31N 25°47' W 080°11'1 1.4
2017-Dec-02 18:00N 25°47' W 080°10'1 2.2
2017-Dec-02 17:30N 25°46' W 080°09'0 0.4
2017-Dec-02 17:01N 25°46' W 080°09'0 0.8
2017-Dec-02 16:30N 25°46' W 080°10'1 1.0
2017-Dec-02 16:00N 25°46' W 080°09'2 4.7
2017-Dec-02 15:31N 25°45' W 080°07'2 3.9
2017-Dec-02 15:00N 25°46' W 080°09'2 4.1
2017-Dec-02 14:30N 25°47' W 080°11'0 0.1
2017-Dec-02 14:01N 25°47' W 080°11'0 0.0
2017-Dec-02 13:30N 25°47' W 080°11'0 0.0
2017-Dec-02 13:00N 25°47' W 080°11'0 0.0
2017-Dec-02 12:30N 25°47' W 080°11'0 0.0
2017-Dec-02 12:00N 25°47' W 080°11'0 0.0
2017-Dec-02 11:30N 25°47' W 080°11'0 0.0
2017-Dec-02 11:01N 25°47' W 080°11'0 0.0
2017-Dec-02 10:30N 25°47' W 080°11'0 0.0
2017-Dec-02 10:01N 25°47' W 080°11'0 0.0
2017-Dec-02 09:30N 25°47' W 080°11'0 0.0
2017-Dec-02 09:00N 25°47' W 080°11'0 0.0
2017-Dec-02 08:30N 25°47' W 080°11'0 0.0
2017-Dec-02 08:00N 25°47' W 080°11'0 0.0
2017-Dec-02 07:30N 25°47' W 080°11'0 0.0
2017-Dec-02 07:00N 25°47' W 080°11'0 0.0
2017-Dec-02 06:30N 25°47' W 080°11'0 0.0
2017-Dec-02 06:00N 25°47' W 080°11'0 0.0
2017-Dec-02 05:30N 25°47' W 080°11'0 0.0
2017-Dec-02 05:00N 25°47' W 080°11'0 0.0
2017-Dec-02 04:31N 25°47' W 080°11'0 0.0
2017-Dec-02 04:00N 25°47' W 080°11'0 0.0
2017-Dec-02 03:30N 25°47' W 080°11'0 0.0
2017-Dec-02 03:00N 25°47' W 080°11'0 0.0
2017-Dec-02 02:30N 25°47' W 080°11'0 0.0
2017-Dec-02 02:00N 25°47' W 080°11'1 2.0
2017-Dec-02 01:30N 25°47' W 080°10'1 1.7
2017-Dec-02 01:00N 25°46' W 080°09'0 0.9
2017-Dec-02 00:30N 25°46' W 080°09'2 3.5
2017-Dec-02 00:01N 25°45' W 080°07'1 2.2
2017-Dec-01 23:31N 25°46' W 080°08'3 5.6
2017-Dec-01 23:01N 25°47' W 080°11'0 0.1
2017-Dec-01 22:31N 25°47' W 080°11'0 0.0
2017-Dec-01 22:00N 25°47' W 080°11'0 0.0
2017-Dec-01 21:31N 25°47' W 080°11'0 0.0
2017-Dec-01 21:00N 25°47' W 080°11'0 0.0
2017-Dec-01 20:30N 25°47' W 080°11'0 0.0
2017-Dec-01 20:01N 25°47' W 080°11'0 0.0
2017-Dec-01 19:31N 25°47' W 080°11'0 0.0
2017-Dec-01 19:01N 25°47' W 080°11'0 0.0
2017-Dec-01 18:30N 25°47' W 080°11'0 0.0
2017-Dec-01 18:00N 25°47' W 080°11'0 0.0
2017-Dec-01 17:30N 25°47' W 080°11'0 0.0
2017-Dec-01 17:01N 25°47' W 080°11'  

Dump ship's entire track history